sensor_id;sensor_type;location;lat;lon;timestamp;pressure;altitude;pressure_sealevel;temperature;humidity
48352;BME280;34163;49.314;6.752;2024-03-02T00:00:18;98261.47;;;4.46;100.00
48352;BME280;34163;49.314;6.752;2024-03-02T00:02:45;98250.31;;;4.41;100.00
48352;BME280;34163;49.314;6.752;2024-03-02T00:05:20;98246.59;;;4.47;100.00
48352;BME280;34163;49.314;6.752;2024-03-02T00:07:51;98247.50;;;4.46;100.00
48352;BME280;34163;49.314;6.752;2024-03-02T00:10:20;98247.03;;;4.36;100.00
48352;BME280;34163;49.314;6.752;2024-03-02T00:12:46;98243.50;;;4.37;100.00
48352;BME280;34163;49.314;6.752;2024-03-02T00:17:57;98242.91;;;4.30;100.00
48352;BME280;34163;49.314;6.752;2024-03-02T00:20:24;98243.03;;;4.27;100.00
48352;BME280;34163;49.314;6.752;2024-03-02T00:23:23;98248.75;;;4.16;100.00
48352;BME280;34163;49.314;6.752;2024-03-02T00:25:44;98239.81;;;4.21;100.00
48352;BME280;34163;49.314;6.752;2024-03-02T00:28:16;98240.25;;;4.10;100.00
48352;BME280;34163;49.314;6.752;2024-03-02T00:33:20;98243.63;;;4.13;100.00
48352;BME280;34163;49.314;6.752;2024-03-02T00:35:46;98244.78;;;4.06;100.00
48352;BME280;34163;49.314;6.752;2024-03-02T00:38:11;98246.56;;;4.06;100.00
48352;BME280;34163;49.314;6.752;2024-03-02T00:40:37;98251.72;;;4.07;100.00
48352;BME280;34163;49.314;6.752;2024-03-02T00:43:03;98251.72;;;4.07;100.00
48352;BME280;34163;49.314;6.752;2024-03-02T00:45:28;98248.16;;;4.08;100.00
48352;BME280;34163;49.314;6.752;2024-03-02T00:47:53;98242.16;;;4.06;100.00
48352;BME280;34163;49.314;6.752;2024-03-02T00:50:19;98240.50;;;4.04;100.00
48352;BME280;34163;49.314;6.752;2024-03-02T00:52:44;98236.25;;;4.01;100.00
48352;BME280;34163;49.314;6.752;2024-03-02T00:55:10;98234.53;;;4.00;100.00
48352;BME280;34163;49.314;6.752;2024-03-02T00:57:35;98241.84;;;3.92;100.00
48352;BME280;34163;49.314;6.752;2024-03-02T01:00:01;98237.34;;;3.95;100.00
48352;BME280;34163;49.314;6.752;2024-03-02T01:02:26;98249.78;;;3.90;100.00
48352;BME280;34163;49.314;6.752;2024-03-02T01:04:52;98235.72;;;3.93;100.00
48352;BME280;34163;49.314;6.752;2024-03-02T01:07:18;98234.84;;;3.92;100.00
48352;BME280;34163;49.314;6.752;2024-03-02T01:09:43;98236.75;;;3.89;100.00
48352;BME280;34163;49.314;6.752;2024-03-02T01:12:08;98237.53;;;3.91;100.00
48352;BME280;34163;49.314;6.752;2024-03-02T01:14:33;98239.06;;;3.96;100.00
48352;BME280;34163;49.314;6.752;2024-03-02T01:17:00;98235.19;;;3.85;100.00
48352;BME280;34163;49.314;6.752;2024-03-02T01:19:28;98243.88;;;3.85;100.00
48352;BME280;34163;49.314;6.752;2024-03-02T01:21:53;98240.25;;;3.88;100.00
48352;BME280;34163;49.314;6.752;2024-03-02T01:24:18;98239.25;;;3.92;100.00
48352;BME280;34163;49.314;6.752;2024-03-02T01:26:44;98233.47;;;3.84;100.00
48352;BME280;34163;49.314;6.752;2024-03-02T01:29:09;98229.78;;;3.88;100.00
48352;BME280;34163;49.314;6.752;2024-03-02T01:31:34;98224.53;;;3.88;100.00
48352;BME280;34163;49.314;6.752;2024-03-02T01:33:59;98220.78;;;3.95;100.00
48352;BME280;34163;49.314;6.752;2024-03-02T01:36:25;98222.91;;;3.85;100.00
48352;BME280;34163;49.314;6.752;2024-03-02T01:38:50;98225.22;;;3.93;100.00
48352;BME280;34163;49.314;6.752;2024-03-02T01:41:15;98216.91;;;3.83;100.00
48352;BME280;34163;49.314;6.752;2024-03-02T01:43:40;98226.50;;;3.82;100.00
48352;BME280;34163;49.314;6.752;2024-03-02T01:46:06;98228.28;;;3.82;100.00
48352;BME280;34163;49.314;6.752;2024-03-02T01:48:31;98222.06;;;3.85;100.00
48352;BME280;34163;49.314;6.752;2024-03-02T01:50:56;98224.63;;;3.86;100.00
48352;BME280;34163;49.314;6.752;2024-03-02T01:53:22;98224.47;;;3.89;100.00
48352;BME280;34163;49.314;6.752;2024-03-02T01:55:48;98223.56;;;3.90;100.00
48352;BME280;34163;49.314;6.752;2024-03-02T01:58:13;98224.69;;;3.85;100.00
48352;BME280;34163;49.314;6.752;2024-03-02T02:00:39;98221.06;;;3.87;100.00
48352;BME280;34163;49.314;6.752;2024-03-02T02:03:04;98221.91;;;3.88;100.00
48352;BME280;34163;49.314;6.752;2024-03-02T02:05:33;98221.06;;;3.87;100.00
48352;BME280;34163;49.314;6.752;2024-03-02T05:45:30;98268.91;;;4.14;100.00
48352;BME280;34163;49.314;6.752;2024-03-02T05:47:55;98265.38;;;4.15;100.00
48352;BME280;34163;49.314;6.752;2024-03-02T05:50:21;98265.25;;;4.18;100.00
48352;BME280;34163;49.314;6.752;2024-03-02T05:52:46;98263.59;;;4.16;100.00
48352;BME280;34163;49.314;6.752;2024-03-02T05:55:12;98266.41;;;4.11;100.00
48352;BME280;34163;49.314;6.752;2024-03-02T05:57:37;98275.50;;;4.25;100.00
48352;BME280;34163;49.314;6.752;2024-03-02T06:00:08;98272.88;;;4.25;100.00
48352;BME280;34163;49.314;6.752;2024-03-02T06:02:33;98272.34;;;4.16;100.00
48352;BME280;34163;49.314;6.752;2024-03-02T06:05:00;98278.25;;;4.22;100.00
48352;BME280;34163;49.314;6.752;2024-03-02T06:07:25;98281.75;;;4.21;100.00
48352;BME280;34163;49.314;6.752;2024-03-02T06:09:50;98279.06;;;4.22;100.00
48352;BME280;34163;49.314;6.752;2024-03-02T06:12:17;98282.66;;;4.19;100.00
48352;BME280;34163;49.314;6.752;2024-03-02T06:14:43;98279.91;;;4.23;100.00
48352;BME280;34163;49.314;6.752;2024-03-02T06:17:08;98290.47;;;4.21;100.00
48352;BME280;34163;49.314;6.752;2024-03-02T06:19:33;98291.34;;;4.22;100.00
48352;BME280;34163;49.314;6.752;2024-03-02T06:21:59;98282.59;;;4.21;100.00
48352;BME280;34163;49.314;6.752;2024-03-02T06:24:24;98288.06;;;4.16;100.00
48352;BME280;34163;49.314;6.752;2024-03-02T06:26:51;98286.09;;;4.22;100.00
48352;BME280;34163;49.314;6.752;2024-03-02T06:29:17;98286.22;;;4.18;100.00
48352;BME280;34163;49.314;6.752;2024-03-02T06:31:42;98283.53;;;4.20;100.00
48352;BME280;34163;49.314;6.752;2024-03-02T06:34:07;98291.22;;;4.25;100.00
48352;BME280;34163;49.314;6.752;2024-03-02T06:36:33;98290.41;;;4.23;100.00
48352;BME280;34163;49.314;6.752;2024-03-02T06:38:58;98298.28;;;4.23;100.00
48352;BME280;34163;49.314;6.752;2024-03-02T06:41:24;98298.84;;;4.31;100.00
48352;BME280;34163;49.314;6.752;2024-03-02T06:43:49;98302.69;;;4.22;100.00
48352;BME280;34163;49.314;6.752;2024-03-02T06:46:14;98304.28;;;4.26;100.00
48352;BME280;34163;49.314;6.752;2024-03-02T06:48:40;98307.06;;;4.22;100.00
48352;BME280;34163;49.314;6.752;2024-03-02T06:51:05;98299.94;;;4.25;100.00
48352;BME280;34163;49.314;6.752;2024-03-02T06:53:30;98298.03;;;4.29;100.00
48352;BME280;34163;49.314;6.752;2024-03-02T06:55:58;98298.97;;;4.28;100.00
48352;BME280;34163;49.314;6.752;2024-03-02T06:58:23;98294.50;;;4.30;100.00
48352;BME280;34163;49.314;6.752;2024-03-02T07:00:49;98301.72;;;4.25;100.00
48352;BME280;34163;49.314;6.752;2024-03-02T07:03:14;98312.78;;;4.31;100.00
48352;BME280;34163;49.314;6.752;2024-03-02T07:05:39;98303.28;;;4.29;100.00
48352;BME280;34163;49.314;6.752;2024-03-02T07:08:04;98300.41;;;4.35;100.00
48352;BME280;34163;49.314;6.752;2024-03-02T07:10:30;98302.19;;;4.34;100.00
48352;BME280;34163;49.314;6.752;2024-03-02T07:12:56;98305.91;;;4.29;100.00
48352;BME280;34163;49.314;6.752;2024-03-02T07:15:21;98308.22;;;4.36;100.00
48352;BME280;34163;49.314;6.752;2024-03-02T07:17:52;98296.81;;;4.38;100.00
48352;BME280;34163;49.314;6.752;2024-03-02T07:20:17;98294.91;;;4.41;100.00
48352;BME280;34163;49.314;6.752;2024-03-02T07:22:43;98297.53;;;4.41;100.00
48352;BME280;34163;49.314;6.752;2024-03-02T07:25:08;98301.06;;;4.40;100.00
48352;BME280;34163;49.314;6.752;2024-03-02T07:27:33;98305.94;;;4.49;100.00
48352;BME280;34163;49.314;6.752;2024-03-02T07:30:00;98303.50;;;4.45;100.00
48352;BME280;34163;49.314;6.752;2024-03-02T08:44:05;98326.38;;;4.41;100.00
48352;BME280;34163;49.314;6.752;2024-03-02T08:46:31;98333.41;;;4.41;100.00
48352;BME280;34163;49.314;6.752;2024-03-02T08:48:56;98336.56;;;4.49;100.00
48352;BME280;34163;49.314;6.752;2024-03-02T08:51:22;98334.25;;;4.41;100.00
48352;BME280;34163;49.314;6.752;2024-03-02T08:53:47;98330.59;;;4.45;100.00
48352;BME280;34163;49.314;6.752;2024-03-02T08:56:16;98332.16;;;4.49;100.00
48352;BME280;34163;49.314;6.752;2024-03-02T08:58:48;98335.91;;;4.44;100.00
48352;BME280;34163;49.314;6.752;2024-03-02T09:01:22;98337.34;;;4.51;100.00
48352;BME280;34163;49.314;6.752;2024-03-02T09:03:48;98328.63;;;4.50;100.00
48352;BME280;34163;49.314;6.752;2024-03-02T09:06:14;98325.34;;;4.45;100.00
48352;BME280;34163;49.314;6.752;2024-03-02T09:08:41;98318.78;;;4.55;100.00
48352;BME280;34163;49.314;6.752;2024-03-02T09:11:07;98317.19;;;4.51;100.00
48352;BME280;34163;49.314;6.752;2024-03-02T09:13:38;98318.72;;;4.57;100.00
48352;BME280;34163;49.314;6.752;2024-03-02T09:16:14;98320.09;;;4.66;100.00
48352;BME280;34163;49.314;6.752;2024-03-02T09:18:40;98313.34;;;4.60;100.00
48352;BME280;34163;49.314;6.752;2024-03-02T09:21:05;98315.78;;;4.65;100.00
48352;BME280;34163;49.314;6.752;2024-03-02T09:23:30;98322.00;;;4.62;100.00
48352;BME280;34163;49.314;6.752;2024-03-02T09:25:56;98310.66;;;4.62;100.00
48352;BME280;34163;49.314;6.752;2024-03-02T09:28:21;98312.16;;;4.67;100.00
48352;BME280;34163;49.314;6.752;2024-03-02T09:30:55;98315.00;;;4.63;100.00
48352;BME280;34163;49.314;6.752;2024-03-02T09:33:20;98295.59;;;4.67;100.00
48352;BME280;34163;49.314;6.752;2024-03-02T09:35:46;98292.97;;;4.67;100.00
48352;BME280;34163;49.314;6.752;2024-03-02T09:38:11;98298.13;;;4.68;100.00
48352;BME280;34163;49.314;6.752;2024-03-02T09:40:36;98294.41;;;4.74;100.00
48352;BME280;34163;49.314;6.752;2024-03-02T09:43:02;98284.31;;;4.65;100.00
48352;BME280;34163;49.314;6.752;2024-03-02T09:45:28;98285.03;;;4.68;100.00
48352;BME280;34163;49.314;6.752;2024-03-02T09:47:54;98279.91;;;4.65;100.00
48352;BME280;34163;49.314;6.752;2024-03-02T09:50:20;98272.75;;;4.69;100.00
48352;BME280;34163;49.314;6.752;2024-03-02T09:53:03;98275.38;;;4.69;100.00
48352;BME280;34163;49.314;6.752;2024-03-02T09:55:29;98278.00;;;4.69;100.00
48352;BME280;34163;49.314;6.752;2024-03-02T09:57:54;98264.69;;;4.73;100.00
48352;BME280;34163;49.314;6.752;2024-03-02T10:00:21;98261.16;;;4.75;100.00
48352;BME280;34163;49.314;6.752;2024-03-02T10:02:46;98259.50;;;4.72;100.00
48352;BME280;34163;49.314;6.752;2024-03-02T10:05:20;98267.75;;;4.83;100.00
48352;BME280;34163;49.314;6.752;2024-03-02T10:07:57;98256.66;;;4.77;100.00
48352;BME280;34163;49.314;6.752;2024-03-02T10:10:28;98258.31;;;4.79;100.00
48352;BME280;34163;49.314;6.752;2024-03-02T10:13:05;98265.88;;;4.87;100.00
48352;BME280;34163;49.314;6.752;2024-03-02T10:15:30;98260.69;;;4.85;100.00
48352;BME280;34163;49.314;6.752;2024-03-02T10:17:55;98264.22;;;4.84;100.00
48352;BME280;34163;49.314;6.752;2024-03-02T10:20:21;98253.72;;;4.84;100.00
48352;BME280;34163;49.314;6.752;2024-03-02T10:22:48;98253.84;;;4.81;100.00
48352;BME280;34163;49.314;6.752;2024-03-02T10:25:31;98254.34;;;4.89;100.00
48352;BME280;34163;49.314;6.752;2024-03-02T10:27:58;98256.22;;;4.87;100.00
48352;BME280;34163;49.314;6.752;2024-03-02T10:30:24;98244.94;;;4.85;100.00
48352;BME280;34163;49.314;6.752;2024-03-02T10:32:49;98239.56;;;4.88;100.00
48352;BME280;34163;49.314;6.752;2024-03-02T10:35:15;98236.13;;;4.86;100.00
48352;BME280;34163;49.314;6.752;2024-03-02T10:50:46;98219.06;;;4.97;100.00
48352;BME280;34163;49.314;6.752;2024-03-02T11:05:39;98200.53;;;5.00;100.00
48352;BME280;34163;49.314;6.752;2024-03-02T11:08:16;98198.13;;;4.95;100.00
48352;BME280;34163;49.314;6.752;2024-03-02T11:10:57;98190.13;;;4.98;100.00
48352;BME280;34163;49.314;6.752;2024-03-02T11:13:32;98197.44;;;5.11;100.00
48352;BME280;34163;49.314;6.752;2024-03-02T11:16:27;98191.31;;;5.10;100.00
48352;BME280;34163;49.314;6.752;2024-03-02T11:19:13;98187.63;;;5.14;100.00
48352;BME280;34163;49.314;6.752;2024-03-02T11:21:42;98185.16;;;5.11;100.00
48352;BME280;34163;49.314;6.752;2024-03-02T11:32:18;98170.16;;;5.13;100.00
48352;BME280;34163;49.314;6.752;2024-03-02T11:34:46;98170.81;;;5.18;100.00
48352;BME280;34163;49.314;6.752;2024-03-02T11:37:13;98169.59;;;5.25;100.00
48352;BME280;34163;49.314;6.752;2024-03-02T11:39:42;98168.97;;;5.20;100.00
48352;BME280;34163;49.314;6.752;2024-03-02T11:42:08;98163.66;;;5.22;100.00
48352;BME280;34163;49.314;6.752;2024-03-02T11:44:38;98161.81;;;5.24;100.00
48352;BME280;34163;49.314;6.752;2024-03-02T11:53:12;98141.91;;;5.18;100.00
48352;BME280;34163;49.314;6.752;2024-03-02T11:55:39;98139.81;;;5.26;100.00
48352;BME280;34163;49.314;6.752;2024-03-02T11:58:28;98137.94;;;5.28;100.00
48352;BME280;34163;49.314;6.752;2024-03-02T12:01:02;98141.34;;;5.31;100.00
48352;BME280;34163;49.314;6.752;2024-03-02T12:03:27;98126.69;;;5.26;100.00
48352;BME280;34163;49.314;6.752;2024-03-02T12:05:54;98128.28;;;5.29;100.00
48352;BME280;34163;49.314;6.752;2024-03-02T12:08:37;98124.69;;;5.32;100.00
48352;BME280;34163;49.314;6.752;2024-03-02T12:11:06;98121.25;;;5.30;100.00
48352;BME280;34163;49.314;6.752;2024-03-02T12:16:58;98120.34;;;5.31;100.00
48352;BME280;34163;49.314;6.752;2024-03-02T12:19:24;98120.19;;;5.34;100.00
48352;BME280;34163;49.314;6.752;2024-03-02T12:21:53;98121.75;;;5.38;100.00
48352;BME280;34163;49.314;6.752;2024-03-02T12:27:19;98119.06;;;5.39;100.00
48352;BME280;34163;49.314;6.752;2024-03-02T12:29:54;98112.03;;;5.40;100.00
48352;BME280;34163;49.314;6.752;2024-03-02T12:32:27;98116.03;;;5.47;100.00
48352;BME280;34163;49.314;6.752;2024-03-02T12:35:26;98110.00;;;5.45;100.00
48352;BME280;34163;49.314;6.752;2024-03-02T12:37:48;98111.81;;;5.44;100.00
48352;BME280;34163;49.314;6.752;2024-03-02T12:40:17;98101.69;;;5.54;100.00
48352;BME280;34163;49.314;6.752;2024-03-02T12:42:43;98102.53;;;5.55;100.00
48352;BME280;34163;49.314;6.752;2024-03-02T12:45:11;98108.94;;;5.49;100.00
48352;BME280;34163;49.314;6.752;2024-03-02T12:47:37;98104.25;;;5.56;100.00
48352;BME280;34163;49.314;6.752;2024-03-02T12:50:04;98111.28;;;5.55;100.00
48352;BME280;34163;49.314;6.752;2024-03-02T12:52:30;98108.94;;;5.49;100.00
48352;BME280;34163;49.314;6.752;2024-03-02T13:01:10;98119.94;;;5.57;100.00
48352;BME280;34163;49.314;6.752;2024-03-02T13:03:36;98124.97;;;5.62;100.00
48352;BME280;34163;49.314;6.752;2024-03-02T13:09:12;98113.44;;;5.64;100.00
48352;BME280;34163;49.314;6.752;2024-03-02T13:11:48;98112.66;;;5.62;100.00
48352;BME280;34163;49.314;6.752;2024-03-02T13:14:35;98105.84;;;5.58;100.00
48352;BME280;34163;49.314;6.752;2024-03-02T13:17:00;98107.09;;;5.69;100.00
48352;BME280;34163;49.314;6.752;2024-03-02T13:19:50;98108.31;;;5.61;100.00
48352;BME280;34163;49.314;6.752;2024-03-02T13:22:13;98114.44;;;5.62;100.00
48352;BME280;34163;49.314;6.752;2024-03-02T13:24:40;98111.59;;;5.67;100.00
48352;BME280;34163;49.314;6.752;2024-03-02T13:27:07;98114.31;;;5.65;100.00
48352;BME280;34163;49.314;6.752;2024-03-02T13:29:38;98113.44;;;5.64;100.00
48352;BME280;34163;49.314;6.752;2024-03-02T13:32:04;98106.34;;;5.67;100.00
48352;BME280;34163;49.314;6.752;2024-03-02T13:34:31;98101.09;;;5.67;100.00
48352;BME280;34163;49.314;6.752;2024-03-02T13:36:56;98102.91;;;5.64;100.00
48352;BME280;34163;49.314;6.752;2024-03-02T13:39:24;98108.41;;;5.77;100.00
48352;BME280;34163;49.314;6.752;2024-03-02T13:41:54;98101.69;;;5.72;100.00
48352;BME280;34163;49.314;6.752;2024-03-02T13:44:39;98098.25;;;5.71;100.00
48352;BME280;34163;49.314;6.752;2024-03-02T13:47:07;98107.03;;;5.70;100.00
48352;BME280;34163;49.314;6.752;2024-03-02T13:49:32;98107.66;;;5.75;100.00
48352;BME280;34163;49.314;6.752;2024-03-02T13:52:35;98109.22;;;5.79;100.00
48352;BME280;34163;49.314;6.752;2024-03-02T13:55:00;98091.13;;;5.73;100.00
48352;BME280;34163;49.314;6.752;2024-03-02T13:57:28;98096.00;;;5.81;100.00
48352;BME280;34163;49.314;6.752;2024-03-02T13:59:56;98097.81;;;5.79;100.00
48352;BME280;34163;49.314;6.752;2024-03-02T14:02:21;98102.84;;;5.83;100.00
48352;BME280;34163;49.314;6.752;2024-03-02T14:04:47;98089.31;;;5.91;100.00
48352;BME280;34163;49.314;6.752;2024-03-02T14:07:13;98088.88;;;5.83;100.00
48352;BME280;34163;49.314;6.752;2024-03-02T14:09:38;98094.34;;;5.78;100.00
48352;BME280;34163;49.314;6.752;2024-03-02T14:12:04;98086.09;;;5.86;100.00
48352;BME280;34163;49.314;6.752;2024-03-02T14:14:32;98081.13;;;5.80;100.00
48352;BME280;34163;49.314;6.752;2024-03-02T14:16:58;98087.97;;;5.84;100.00
48352;BME280;34163;49.314;6.752;2024-03-02T14:19:28;98086.09;;;5.86;100.00
48352;BME280;34163;49.314;6.752;2024-03-02T14:21:53;98083.69;;;5.81;100.00
48352;BME280;34163;49.314;6.752;2024-03-02T14:24:19;98083.63;;;5.83;100.00
48352;BME280;34163;49.314;6.752;2024-03-02T14:26:45;98082.69;;;5.84;100.00
48352;BME280;34163;49.314;6.752;2024-03-02T14:29:10;98089.78;;;5.82;100.00
48352;BME280;34163;49.314;6.752;2024-03-02T14:31:36;98087.81;;;5.87;100.00
48352;BME280;34163;49.314;6.752;2024-03-02T14:34:12;98086.94;;;5.87;100.00
48352;BME280;34163;49.314;6.752;2024-03-02T14:36:37;98081.06;;;5.81;100.00
48352;BME280;34163;49.314;6.752;2024-03-02T14:39:18;98081.75;;;5.85;100.00
48352;BME280;34163;49.314;6.752;2024-03-02T14:41:45;98084.16;;;5.90;100.00
48352;BME280;34163;49.314;6.752;2024-03-02T14:44:12;98083.53;;;5.85;100.00
48352;BME280;34163;49.314;6.752;2024-03-02T14:46:38;98077.44;;;5.84;100.00
48352;BME280;34163;49.314;6.752;2024-03-02T14:49:03;98069.13;;;5.92;100.00
48352;BME280;34163;49.314;6.752;2024-03-02T14:51:28;98074.81;;;5.84;100.00
48352;BME280;34163;49.314;6.752;2024-03-02T14:53:57;98072.94;;;5.86;100.00
48352;BME280;34163;49.314;6.752;2024-03-02T14:56:23;98068.16;;;5.94;100.00
48352;BME280;34163;49.314;6.752;2024-03-02T14:58:48;98063.28;;;5.87;100.00
48352;BME280;34163;49.314;6.752;2024-03-02T15:01:16;98058.78;;;5.89;100.00
48352;BME280;34163;49.314;6.752;2024-03-02T15:03:45;98058.47;;;5.95;100.00
48352;BME280;34163;49.314;6.752;2024-03-02T15:06:10;98052.53;;;5.91;100.00
48352;BME280;34163;49.314;6.752;2024-03-02T15:08:38;98047.41;;;5.88;100.00
48352;BME280;34163;49.314;6.752;2024-03-02T15:11:06;98055.91;;;5.93;100.00
48352;BME280;34163;49.314;6.752;2024-03-02T15:13:34;98036.75;;;5.91;100.00
48352;BME280;34163;49.314;6.752;2024-03-02T15:16:00;98036.00;;;5.89;100.00
48352;BME280;34163;49.314;6.752;2024-03-02T15:18:26;98037.44;;;5.95;100.00
48352;BME280;34163;49.314;6.752;2024-03-02T15:20:52;98031.50;;;5.91;100.00
48352;BME280;34163;49.314;6.752;2024-03-02T15:23:17;98029.63;;;5.93;100.00
48352;BME280;34163;49.314;6.752;2024-03-02T15:25:43;98023.16;;;6.00;100.00
48352;BME280;34163;49.314;6.752;2024-03-02T15:28:11;98025.25;;;5.94;100.00
48352;BME280;34163;49.314;6.752;2024-03-02T15:30:36;98019.84;;;5.97;100.00
48352;BME280;34163;49.314;6.752;2024-03-02T15:33:01;98020.22;;;6.07;100.00
48352;BME280;34163;49.314;6.752;2024-03-02T15:35:27;98015.34;;;5.99;100.00
48352;BME280;34163;49.314;6.752;2024-03-02T15:37:54;98017.16;;;5.98;100.00
48352;BME280;34163;49.314;6.752;2024-03-02T15:40:20;98019.28;;;6.08;100.00
48352;BME280;34163;49.314;6.752;2024-03-02T15:42:47;98026.63;;;6.01;100.00
48352;BME280;34163;49.314;6.752;2024-03-02T15:45:12;98022.25;;;6.02;100.00
48352;BME280;34163;49.314;6.752;2024-03-02T15:47:38;98021.28;;;6.03;100.00
48352;BME280;34163;49.314;6.752;2024-03-02T15:50:03;98026.06;;;5.94;100.00
48352;BME280;34163;49.314;6.752;2024-03-02T15:52:29;98027.50;;;6.02;100.00
48352;BME280;34163;49.314;6.752;2024-03-02T15:54:54;98033.53;;;6.04;100.00
48352;BME280;34163;49.314;6.752;2024-03-02T15:57:20;98048.78;;;5.97;100.00
48352;BME280;34163;49.314;6.752;2024-03-02T15:59:45;98042.34;;;6.03;100.00
48352;BME280;34163;49.314;6.752;2024-03-02T16:02:11;98038.78;;;6.04;100.00
48352;BME280;34163;49.314;6.752;2024-03-02T16:04:36;98049.63;;;5.97;100.00
48352;BME280;34163;49.314;6.752;2024-03-02T16:07:02;98049.31;;;6.04;100.00
48352;BME280;34163;49.314;6.752;2024-03-02T16:09:29;98053.81;;;6.02;100.00
48352;BME280;34163;49.314;6.752;2024-03-02T16:11:55;98045.13;;;5.99;100.00
48352;BME280;34163;49.314;6.752;2024-03-02T16:14:25;98040.38;;;6.06;100.00
48352;BME280;34163;49.314;6.752;2024-03-02T16:16:56;98046.50;;;6.07;100.00
48352;BME280;34163;49.314;6.752;2024-03-02T16:19:24;98044.97;;;6.03;100.00
48352;BME280;34163;49.314;6.752;2024-03-02T16:21:56;98042.94;;;6.08;100.00
48352;BME280;34163;49.314;6.752;2024-03-02T16:24:22;98035.69;;;6.13;100.00
48352;BME280;34163;49.314;6.752;2024-03-02T16:26:47;98032.50;;;6.06;100.00
48352;BME280;34163;49.314;6.752;2024-03-02T16:29:33;98023.78;;;6.06;100.00
48352;BME280;34163;49.314;6.752;2024-03-02T16:32:19;98021.91;;;6.08;100.00
48352;BME280;34163;49.314;6.752;2024-03-02T16:34:43;98022.78;;;6.08;100.00
48352;BME280;34163;49.314;6.752;2024-03-02T16:37:16;98019.34;;;6.06;100.00
48352;BME280;34163;49.314;6.752;2024-03-02T16:39:41;98015.19;;;6.02;100.00
48352;BME280;34163;49.314;6.752;2024-03-02T16:42:08;98021.75;;;6.11;100.00
48352;BME280;34163;49.314;6.752;2024-03-02T16:44:36;98016.63;;;6.08;100.00
48352;BME280;34163;49.314;6.752;2024-03-02T16:50:07;98018.66;;;6.03;100.00
48352;BME280;34163;49.314;6.752;2024-03-02T16:52:47;98019.19;;;6.09;100.00
48352;BME280;34163;49.314;6.752;2024-03-02T16:58:13;98008.66;;;6.09;100.00
48352;BME280;34163;49.314;6.752;2024-03-02T17:00:42;98003.41;;;6.09;100.00
48352;BME280;34163;49.314;6.752;2024-03-02T17:03:18;97995.59;;;6.08;100.00
48352;BME280;34163;49.314;6.752;2024-03-02T17:05:46;97990.34;;;6.08;100.00
48352;BME280;34163;49.314;6.752;2024-03-02T17:08:12;97987.31;;;6.15;100.00
48352;BME280;34163;49.314;6.752;2024-03-02T17:10:43;97983.94;;;6.13;100.00
48352;BME280;34163;49.314;6.752;2024-03-02T17:13:18;97982.38;;;6.09;100.00
48352;BME280;34163;49.314;6.752;2024-03-02T17:15:46;97977.91;;;6.11;100.00
48352;BME280;34163;49.314;6.752;2024-03-02T17:21:05;97991.91;;;6.12;100.00
48352;BME280;34163;49.314;6.752;2024-03-02T17:23:39;97984.25;;;6.07;100.00
48352;BME280;34163;49.314;6.752;2024-03-02T17:26:25;97991.91;;;6.12;100.00
48352;BME280;34163;49.314;6.752;2024-03-02T17:28:53;97997.75;;;6.17;100.00
48352;BME280;34163;49.314;6.752;2024-03-02T17:31:21;98001.16;;;6.19;100.00
48352;BME280;34163;49.314;6.752;2024-03-02T17:34:07;98002.25;;;6.15;100.00
48352;BME280;34163;49.314;6.752;2024-03-02T17:36:35;98003.88;;;6.17;100.00
48352;BME280;34163;49.314;6.752;2024-03-02T17:39:00;98005.31;;;6.23;100.00
48352;BME280;34163;49.314;6.752;2024-03-02T17:41:33;98003.97;;;6.16;100.00
48352;BME280;34163;49.314;6.752;2024-03-02T17:44:02;97995.19;;;6.15;100.00
48352;BME280;34163;49.314;6.752;2024-03-02T17:46:28;97999.38;;;6.20;100.00
48352;BME280;34163;49.314;6.752;2024-03-02T17:48:56;97994.97;;;6.20;100.00
48352;BME280;34163;49.314;6.752;2024-03-02T17:51:24;97988.19;;;6.16;100.00
48352;BME280;34163;49.314;6.752;2024-03-02T17:54:00;97991.13;;;6.59;100.00
48352;BME280;34163;49.314;6.752;2024-03-02T17:56:25;97988.97;;;6.50;100.00
48352;BME280;34163;49.314;6.752;2024-03-02T17:59:02;97980.31;;;6.32;100.00
48352;BME280;34163;49.314;6.752;2024-03-02T18:01:30;97986.00;;;6.24;100.00
48352;BME280;34163;49.314;6.752;2024-03-02T18:03:55;97985.91;;;6.26;100.00
48352;BME280;34163;49.314;6.752;2024-03-02T18:06:21;97993.72;;;6.27;100.00
48352;BME280;34163;49.314;6.752;2024-03-02T18:08:49;98004.63;;;6.20;100.00
48352;BME280;34163;49.314;6.752;2024-03-02T18:11:17;98010.56;;;6.23;100.00
48352;BME280;34163;49.314;6.752;2024-03-02T18:13:43;98016.50;;;6.27;100.00
48352;BME280;34163;49.314;6.752;2024-03-02T18:16:08;98017.72;;;6.21;100.00
48352;BME280;34163;49.314;6.752;2024-03-02T18:18:36;98014.22;;;6.21;100.00
48352;BME280;34163;49.314;6.752;2024-03-02T18:21:05;98018.06;;;6.31;100.00
48352;BME280;34163;49.314;6.752;2024-03-02T18:23:33;98005.31;;;6.23;100.00
48352;BME280;34163;49.314;6.752;2024-03-02T18:25:58;97999.97;;;6.25;100.00
48352;BME280;34163;49.314;6.752;2024-03-02T18:28:24;97985.66;;;6.30;100.00
48352;BME280;34163;49.314;6.752;2024-03-02T18:30:49;97968.50;;;6.23;100.00
48352;BME280;34163;49.314;6.752;2024-03-02T18:33:14;97969.00;;;6.30;100.00
48352;BME280;34163;49.314;6.752;2024-03-02T18:35:40;97961.72;;;6.35;100.00
48352;BME280;34163;49.314;6.752;2024-03-02T18:38:06;97963.06;;;6.26;100.00
48352;BME280;34163;49.314;6.752;2024-03-02T18:40:31;97956.88;;;6.27;100.00
48352;BME280;34163;49.314;6.752;2024-03-02T18:42:59;97955.84;;;6.30;100.00
48352;BME280;34163;49.314;6.752;2024-03-02T18:45:25;97944.75;;;6.25;100.00
48352;BME280;34163;49.314;6.752;2024-03-02T18:47:50;97942.88;;;6.27;100.00
48352;BME280;34163;49.314;6.752;2024-03-02T18:50:19;97937.34;;;6.31;100.00
48352;BME280;34163;49.314;6.752;2024-03-02T18:52:46;97940.31;;;6.25;100.00
48352;BME280;34163;49.314;6.752;2024-03-02T18:55:12;97939.56;;;6.23;100.00
48352;BME280;34163;49.314;6.752;2024-03-02T18:57:37;97934.06;;;6.28;100.00
48352;BME280;34163;49.314;6.752;2024-03-02T19:00:03;97944.75;;;6.25;100.00
48352;BME280;34163;49.314;6.752;2024-03-02T19:02:30;97940.41;;;6.24;100.00